Terminal Aerodrome Forecast
Issued by NWS

Home | Current Version | Previous Version | Text Only | Print | Product List | Glossary On
Versions: 1 2 3 4 5 6 7 8 9 10 11 12 13 14 15 16 17 18
000
FTAK31 PANC 150539
TAFAVD
TAF
PAVD 150539Z 1506/1606 VRB04KT 6SM -RA OVC045
      TEMPO 1506/1510 4SM -RASN BR BKN025
     FM151000 VRB03KT 4SM -RASN BR SCT003 OVC025
     FM151800 VRB03KT 6SM BR SCT001 BKN030
     FM152300 VRB03KT P6SM VCSH BKN045
     FM160400 VRB03KT 6SM -RA OVC030
      AMD LTD TO CLD VIS AND WIND=

USA.gov is the U.S. government's official web portal to all federal, state and local government web resources and services.